Time;durP1;ratioP1;P1;durP2;ratioP2;P2;SDS_P1;SDS_P2;PMS_P1;PMS_P2;Temp;Humidity;BMP_temperature;BMP_pressure;BME280_temperature;BME280_humidity;BME280_pressure;Samples;Min_cycle;Max_cycle;Signal;HPM_P1;HPM_P2
2023/06/18 00:01:28;;;;;;;3.28;1.95;;;12.80;99.90;;;;;;4952877;29;20267;-71
2023/06/18 00:03:59;;;;;;;3.70;1.50;;;13.00;99.90;;;;;;4956205;28;20213;-71
2023/06/18 00:06:30;;;;;;;2.63;1.55;;;13.20;99.90;;;;;;4951428;29;20675;-71
2023/06/18 00:09:01;;;;;;;2.33;1.60;;;13.30;99.90;;;;;;4955907;28;20207;-70
2023/06/18 00:11:35;;;;;;;2.97;1.65;;;13.50;99.90;;;;;;4945137;29;20284;-71
2023/06/18 00:14:08;;;;;;;2.28;1.63;;;13.70;99.90;;;;;;4956525;28;20205;-70
2023/06/18 00:16:40;;;;;;;2.90;1.55;;;13.80;99.90;;;;;;4955182;28;20240;-71
2023/06/18 00:19:11;;;;;;;1.88;1.50;;;13.90;99.90;;;;;;4954998;28;20204;-71
2023/06/18 00:21:42;;;;;;;4.25;1.42;;;14.10;99.90;;;;;;4954006;28;20578;-71
2023/06/18 00:24:13;;;;;;;1.83;1.30;;;14.20;99.90;;;;;;4953652;28;20193;-71
2023/06/18 00:26:44;;;;;;;3.42;1.58;;;14.30;99.90;;;;;;4952695;28;20196;-72
2023/06/18 00:29:20;;;;;;;6.28;1.70;;;14.50;99.90;;;;;;4956020;29;20618;-71
2023/06/18 00:31:52;;;;;;;1.65;1.05;;;14.60;99.90;;;;;;4956739;28;20193;-71
2023/06/18 00:34:32;;;;;;;3.08;1.30;;;14.80;99.90;;;;;;4956624;28;20189;-71
2023/06/18 00:37:09;;;;;;;3.35;1.20;;;14.80;99.90;;;;;;4955724;28;20217;-71
2023/06/18 00:39:40;;;;;;;3.63;1.05;;;14.90;99.90;;;;;;4956685;28;20276;-71
2023/06/18 00:42:12;;;;;;;2.45;1.10;;;15.10;99.90;;;;;;4953241;28;20207;-71
2023/06/18 00:44:45;;;;;;;2.58;1.00;;;15.20;99.90;;;;;;4955833;28;20248;-71
2023/06/18 00:47:17;;;;;;;1.77;1.02;;;15.30;99.90;;;;;;4956081;28;20189;-71
2023/06/18 00:49:50;;;;;;;1.90;0.98;;;15.50;99.90;;;;;;4951893;28;20201;-71
2023/06/18 00:52:23;;;;;;;1.38;0.80;;;15.60;99.90;;;;;;4955840;28;20279;-71
2023/06/18 00:54:56;;;;;;;1.80;0.90;;;15.80;99.90;;;;;;4948536;29;20204;-71
2023/06/18 00:57:28;;;;;;;2.38;0.70;;;15.90;99.90;;;;;;4951574;29;20221;-71
2023/06/18 01:00:02;;;;;;;1.35;0.80;;;16.10;99.90;;;;;;4956000;29;20600;-70
2023/06/18 01:02:36;;;;;;;0.88;0.60;;;16.20;99.90;;;;;;4960782;28;20236;-73
2023/06/18 01:05:09;;;;;;;1.10;0.70;;;16.30;99.90;;;;;;4956154;28;20199;-74
2023/06/18 01:07:52;;;;;;;1.23;0.65;;;16.40;99.90;;;;;;5117412;27;20556;-72
2023/06/18 01:10:29;;;;;;;1.30;0.70;;;16.50;99.90;;;;;;5116628;27;20187;-72
2023/06/18 01:13:01;;;;;;;2.70;0.80;;;16.60;99.90;;;;;;5101842;28;20210;-73
2023/06/18 01:15:32;;;;;;;0.57;0.50;;;16.70;99.90;;;;;;5114977;27;20192;-72
2023/06/18 01:18:06;;;;;;;1.13;0.70;;;16.70;99.90;;;;;;5108677;28;20568;-73
2023/06/18 01:20:41;;;;;;;1.05;0.60;;;16.70;99.90;;;;;;5111022;28;20188;-72
2023/06/18 01:23:27;;;;;;;10.25;1.45;;;16.70;99.90;;;;;;5100459;28;20198;-73
2023/06/18 01:26:01;;;;;;;0.90;0.40;;;17.10;99.90;;;;;;5095585;28;20690;-72
2023/06/18 01:28:35;;;;;;;1.38;0.55;;;16.90;99.90;;;;;;5096727;28;20282;-73
2023/06/18 01:31:06;;;;;;;1.15;0.50;;;17.00;99.90;;;;;;5110891;28;20223;-73
2023/06/18 01:33:38;;;;;;;1.58;0.60;;;17.10;99.90;;;;;;5091714;28;20196;-72
2023/06/18 01:36:16;;;;;;;1.42;0.50;;;17.10;99.90;;;;;;5090384;28;20271;-72
2023/06/18 01:38:54;;;;;;;2.50;0.70;;;17.30;99.90;;;;;;5090977;28;20578;-72
2023/06/18 01:41:31;;;;;;;1.55;0.50;;;17.40;99.90;;;;;;5090208;28;20761;-72
2023/06/18 01:44:08;;;;;;;1.25;0.60;;;17.40;99.90;;;;;;5101896;28;20207;-72
2023/06/18 01:46:39;;;;;;;2.13;0.68;;;17.50;99.90;;;;;;5094466;28;20219;-72
2023/06/18 01:49:11;;;;;;;1.95;0.60;;;17.60;99.90;;;;;;5108180;28;20207;-73
2023/06/18 01:51:43;;;;;;;1.38;0.65;;;17.70;99.90;;;;;;5107706;28;20634;-72
2023/06/18 01:54:23;;;;;;;2.00;0.60;;;17.70;99.90;;;;;;5091349;28;20721;-72
2023/06/18 01:56:54;;;;;;;2.25;0.70;;;17.80;99.90;;;;;;5106302;28;20552;-73
2023/06/18 01:59:25;;;;;;;0.93;0.40;;;17.90;99.90;;;;;;5109248;28;20230;-72
2023/06/18 02:01:56;;;;;;;0.60;0.38;;;18.00;99.90;;;;;;5107281;28;20194;-73
2023/06/18 02:04:27;;;;;;;1.63;0.60;;;18.00;99.90;;;;;;5105730;28;20196;-72
2023/06/18 02:06:59;;;;;;;1.98;0.70;;;18.10;99.90;;;;;;5093691;28;20251;-72
2023/06/18 02:09:35;;;;;;;2.08;0.65;;;18.20;99.90;;;;;;5091598;28;20196;-72
2023/06/18 02:12:07;;;;;;;3.20;0.63;;;18.30;99.90;;;;;;5088356;28;20591;-72
2023/06/18 02:14:38;;;;;;;2.15;0.70;;;18.30;99.90;;;;;;5105818;28;20655;-72
2023/06/18 02:17:10;;;;;;;2.15;0.73;;;18.50;99.90;;;;;;5107875;28;20195;-72
2023/06/18 02:19:41;;;;;;;1.35;0.60;;;18.50;99.90;;;;;;5092512;28;20199;-73
2023/06/18 02:22:12;;;;;;;1.02;0.50;;;18.50;99.90;;;;;;5075348;28;20204;-73
2023/06/18 02:24:45;;;;;;;1.55;0.50;;;18.50;99.90;;;;;;5075957;28;20211;-73
2023/06/18 02:27:20;;;;;;;2.10;0.65;;;18.50;99.90;;;;;;5073861;28;20224;-74
2023/06/18 02:29:51;;;;;;;1.23;0.57;;;18.50;99.90;;;;;;5092339;28;20219;-74
2023/06/18 02:32:22;;;;;;;2.75;0.70;;;18.60;99.90;;;;;;5089581;28;20207;-73
2023/06/18 02:34:53;;;;;;;2.65;0.60;;;18.70;99.90;;;;;;5087648;28;20266;-72
2023/06/18 02:37:24;;;;;;;1.42;0.73;;;18.70;99.90;;;;;;5086406;28;20275;-72
2023/06/18 02:39:57;;;;;;;2.58;0.65;;;18.70;99.90;;;;;;5075559;28;20567;-74
2023/06/18 02:42:28;;;;;;;2.00;0.75;;;18.70;99.90;;;;;;5084464;28;20678;-72
2023/06/18 02:44:59;;;;;;;1.02;0.50;;;18.70;99.90;;;;;;5091223;28;20196;-74
2023/06/18 02:47:30;;;;;;;1.23;0.68;;;18.70;99.90;;;;;;5079678;28;20683;-72
2023/06/18 02:50:01;;;;;;;1.70;0.60;;;18.70;99.90;;;;;;5087740;28;20189;-73
2023/06/18 02:52:34;;;;;;;1.67;0.70;;;18.80;99.90;;;;;;5086713;28;20197;-73
2023/06/18 02:55:08;;;;;;;1.30;0.70;;;18.90;99.90;;;;;;5089835;28;20718;-73
2023/06/18 02:57:39;;;;;;;0.77;0.60;;;18.90;99.90;;;;;;5078505;28;20201;-73
2023/06/18 03:00:12;;;;;;;2.38;0.60;;;19.00;99.90;;;;;;5078174;28;20237;-73
2023/06/18 03:02:44;;;;;;;2.00;0.80;;;19.00;99.90;;;;;;5074959;28;20207;-73
2023/06/18 03:05:15;;;;;;;3.00;0.70;;;19.00;99.90;;;;;;5079332;28;20483;-75
2023/06/18 03:07:46;;;;;;;1.35;0.80;;;19.10;99.90;;;;;;5075097;28;20687;-72
2023/06/18 03:10:19;;;;;;;0.70;0.60;;;19.10;99.90;;;;;;5074311;28;20548;-73
2023/06/18 03:12:51;;;;;;;3.05;0.60;;;19.20;99.90;;;;;;5074687;28;20205;-73
2023/06/18 03:15:22;;;;;;;3.30;0.82;;;19.30;99.90;;;;;;5078420;28;20188;-74
2023/06/18 03:17:53;;;;;;;0.93;0.55;;;19.20;99.90;;;;;;5086269;28;20227;-73
2023/06/18 03:20:24;;;;;;;1.35;0.60;;;19.20;99.90;;;;;;5088975;28;20645;-75
2023/06/18 03:22:56;;;;;;;1.75;0.47;;;19.10;99.90;;;;;;5081835;28;20204;-73
2023/06/18 03:25:29;;;;;;;1.38;0.55;;;19.10;99.90;;;;;;5088777;28;20661;-74
2023/06/18 03:28:00;;;;;;;1.52;0.57;;;19.10;99.90;;;;;;5084185;28;20232;-73
2023/06/18 03:30:31;;;;;;;2.17;0.50;;;19.30;99.90;;;;;;5073237;28;20203;-72
2023/06/18 03:33:02;;;;;;;1.60;0.30;;;19.40;99.90;;;;;;5088549;28;20659;-74
2023/06/18 03:35:36;;;;;;;0.80;0.40;;;19.50;99.90;;;;;;5088896;28;20252;-74
2023/06/18 03:38:07;;;;;;;0.93;0.38;;;19.50;99.90;;;;;;5081393;28;20262;-74
2023/06/18 03:40:40;;;;;;;2.08;0.35;;;19.50;99.90;;;;;;5077742;28;20197;-73
2023/06/18 03:43:12;;;;;;;2.22;0.57;;;19.40;99.90;;;;;;5083348;28;20199;-74
2023/06/18 03:45:43;;;;;;;0.65;0.30;;;19.30;99.90;;;;;;5088364;28;20227;-80
2023/06/18 03:48:14;;;;;;;1.58;0.50;;;19.30;99.90;;;;;;5086984;28;20573;-73
2023/06/18 03:50:45;;;;;;;0.70;0.30;;;19.30;99.90;;;;;;5077024;28;20196;-80
2023/06/18 03:53:16;;;;;;;0.98;0.40;;;19.20;99.90;;;;;;5077835;28;20188;-75
2023/06/18 03:55:49;;;;;;;1.08;0.30;;;19.20;99.90;;;;;;5088627;28;20547;-74
2023/06/18 03:58:21;;;;;;;1.05;0.50;;;19.10;99.90;;;;;;5095818;28;20196;-73
2023/06/18 04:00:52;;;;;;;2.40;0.40;;;19.10;99.90;;;;;;5091370;28;20200;-74
2023/06/18 04:03:23;;;;;;;2.50;0.40;;;19.00;99.90;;;;;;5082178;28;20201;-74
2023/06/18 04:05:54;;;;;;;2.05;0.50;;;19.00;99.90;;;;;;5085503;28;20230;-75
2023/06/18 04:08:27;;;;;;;2.22;0.52;;;19.10;99.90;;;;;;5076732;28;20572;-74
2023/06/18 04:11:00;;;;;;;0.45;0.40;;;19.10;99.90;;;;;;5072351;28;20196;-73
2023/06/18 04:13:31;;;;;;;1.80;0.47;;;19.10;99.90;;;;;;5089026;28;20207;-73
2023/06/18 04:16:02;;;;;;;2.25;0.47;;;19.10;99.90;;;;;;5082872;28;20563;-73
2023/06/18 04:18:33;;;;;;;0.77;0.50;;;19.10;99.90;;;;;;5078833;28;20199;-73
2023/06/18 04:21:04;;;;;;;1.33;0.60;;;19.20;99.90;;;;;;5084695;28;20200;-73
2023/06/18 04:23:35;;;;;;;2.97;0.60;;;19.20;99.90;;;;;;5077124;28;20196;-73
2023/06/18 04:26:08;;;;;;;2.60;0.50;;;19.20;99.90;;;;;;5073710;28;20196;-76
2023/06/18 04:28:39;;;;;;;3.90;0.60;;;19.30;99.90;;;;;;5073652;28;20683;-72
2023/06/18 04:31:10;;;;;;;1.50;0.40;;;19.20;99.90;;;;;;5073706;28;20193;-72
2023/06/18 04:33:42;;;;;;;1.90;0.52;;;19.30;99.90;;;;;;5073155;28;20675;-73
2023/06/18 04:36:16;;;;;;;1.48;0.50;;;19.20;99.90;;;;;;5072998;28;20199;-74
2023/06/18 04:38:47;;;;;;;2.03;0.40;;;19.30;99.90;;;;;;5078712;28;20206;-73
2023/06/18 04:41:20;;;;;;;0.77;0.43;;;19.30;99.90;;;;;;5072809;28;20192;-72
2023/06/18 04:43:51;;;;;;;2.45;0.50;;;19.40;99.90;;;;;;5073513;28;20192;-72
2023/06/18 04:46:23;;;;;;;0.85;0.40;;;19.30;99.90;;;;;;5072471;28;20203;-72
2023/06/18 04:48:54;;;;;;;2.08;0.68;;;19.30;99.90;;;;;;5073437;28;20196;-74
2023/06/18 04:51:25;;;;;;;1.40;0.50;;;19.20;99.90;;;;;;5073233;28;20191;-72
2023/06/18 04:53:56;;;;;;;0.65;0.45;;;19.20;99.90;;;;;;5077224;28;20196;-72
2023/06/18 04:56:31;;;;;;;1.48;0.50;;;19.10;99.90;;;;;;5072627;28;20200;-73
2023/06/18 04:59:02;;;;;;;2.45;0.60;;;18.90;99.90;;;;;;5080262;28;20220;-72
2023/06/18 05:01:33;;;;;;;1.65;0.50;;;18.70;99.90;;;;;;5072784;28;20197;-72
2023/06/18 05:04:04;;;;;;;2.25;0.50;;;18.60;99.90;;;;;;5070951;28;20193;-72
2023/06/18 05:06:35;;;;;;;1.13;0.60;;;18.50;99.90;;;;;;5076847;28;20229;-73
2023/06/18 05:09:07;;;;;;;0.82;0.50;;;18.50;99.90;;;;;;5085950;28;20189;-72
2023/06/18 05:11:40;;;;;;;0.88;0.47;;;18.40;99.90;;;;;;5089931;28;20235;-72
2023/06/18 05:14:11;;;;;;;1.17;0.60;;;18.30;99.90;;;;;;5072403;28;20555;-72
2023/06/18 05:16:42;;;;;;;1.75;0.70;;;18.20;99.90;;;;;;5091085;28;20196;-73
2023/06/18 05:19:13;;;;;;;1.70;0.60;;;18.20;99.90;;;;;;5089562;28;20278;-72
2023/06/18 05:21:45;;;;;;;1.00;0.60;;;18.20;99.90;;;;;;5078203;28;20195;-72
2023/06/18 05:24:16;;;;;;;1.25;0.57;;;18.20;99.90;;;;;;5080441;28;20279;-72
2023/06/18 05:26:49;;;;;;;0.88;0.60;;;18.20;99.90;;;;;;5085234;28;20192;-72
2023/06/18 05:29:21;;;;;;;3.17;0.77;;;18.10;99.90;;;;;;5091984;28;20196;-72
2023/06/18 05:31:52;;;;;;;2.25;0.52;;;18.20;99.90;;;;;;5084912;28;20667;-71
2023/06/18 05:34:23;;;;;;;1.65;0.60;;;18.10;99.90;;;;;;5086502;28;20204;-74
2023/06/18 05:36:54;;;;;;;1.65;0.70;;;18.10;99.90;;;;;;5073652;28;20565;-73
2023/06/18 05:39:26;;;;;;;1.65;0.60;;;18.00;99.90;;;;;;5088563;28;20208;-72
2023/06/18 05:41:59;;;;;;;2.08;0.60;;;18.10;99.90;;;;;;5085451;28;20640;-72
2023/06/18 05:44:30;;;;;;;1.20;0.70;;;18.10;99.90;;;;;;5080536;28;20196;-72
2023/06/18 05:47:01;;;;;;;1.10;0.60;;;18.00;99.90;;;;;;5083699;28;20279;-71
2023/06/18 05:49:33;;;;;;;2.35;0.52;;;17.90;99.90;;;;;;5083875;28;20197;-75
2023/06/18 05:52:04;;;;;;;2.33;0.60;;;17.90;99.90;;;;;;5086591;28;20197;-72
2023/06/18 05:54:35;;;;;;;0.80;0.50;;;17.80;99.90;;;;;;5084666;28;20197;-72
2023/06/18 05:57:09;;;;;;;1.40;0.50;;;17.70;99.90;;;;;;5092775;28;20196;-71
2023/06/18 05:59:40;;;;;;;0.75;0.50;;;17.70;99.90;;;;;;5077503;28;20561;-72
2023/06/18 06:02:11;;;;;;;0.70;0.65;;;17.70;99.90;;;;;;5086287;28;20287;-73
2023/06/18 06:04:42;;;;;;;3.97;0.80;;;17.60;99.90;;;;;;5089692;28;20584;-73
2023/06/18 06:07:15;;;;;;;0.90;0.50;;;17.60;99.90;;;;;;5089869;28;20224;-71
2023/06/18 06:09:46;;;;;;;0.65;0.45;;;17.60;99.90;;;;;;5084930;28;20249;-71
2023/06/18 06:12:20;;;;;;;0.95;0.50;;;17.60;99.90;;;;;;5085909;28;20714;-71
2023/06/18 06:14:51;;;;;;;0.40;0.40;;;17.40;99.90;;;;;;5080316;28;20258;-72
2023/06/18 06:17:22;;;;;;;0.70;0.40;;;17.20;99.90;;;;;;5083478;28;20671;-72
2023/06/18 06:19:53;;;;;;;1.42;0.60;;;16.90;99.90;;;;;;5092551;28;20196;-72
2023/06/18 06:22:24;;;;;;;0.93;0.50;;;16.80;99.90;;;;;;5095947;28;20215;-73
2023/06/18 06:24:55;;;;;;;0.75;0.50;;;16.70;99.90;;;;;;5090999;28;20655;-72
2023/06/18 06:27:30;;;;;;;3.33;0.70;;;16.60;99.90;;;;;;5091053;28;20282;-74
2023/06/18 06:30:01;;;;;;;1.63;0.70;;;16.40;99.90;;;;;;5074915;28;20196;-72
2023/06/18 06:32:33;;;;;;;0.95;0.65;;;16.30;99.90;;;;;;5089700;28;20271;-72
2023/06/18 06:35:04;;;;;;;1.70;0.60;;;16.20;99.90;;;;;;5080023;28;20266;-72
2023/06/18 06:37:35;;;;;;;1.35;0.57;;;16.20;99.90;;;;;;5090532;28;20203;-72
2023/06/18 06:40:08;;;;;;;0.70;0.50;;;16.10;99.90;;;;;;5089720;28;20192;-72
2023/06/18 06:42:43;;;;;;;1.55;0.68;;;16.00;99.90;;;;;;5086097;28;20192;-72
2023/06/18 06:45:14;;;;;;;1.10;0.73;;;16.00;99.90;;;;;;5082305;28;20201;-72
2023/06/18 06:47:46;;;;;;;0.55;0.55;;;15.90;99.90;;;;;;5086167;28;20215;-71
2023/06/18 06:50:17;;;;;;;0.57;0.52;;;15.80;99.90;;;;;;5089575;28;20211;-72
2023/06/18 06:52:48;;;;;;;0.95;0.80;;;15.80;99.90;;;;;;5081165;28;20284;-72
2023/06/18 06:55:20;;;;;;;0.98;0.60;;;15.70;99.90;;;;;;5076014;28;20196;-72
2023/06/18 06:57:53;;;;;;;1.35;0.70;;;15.60;99.90;;;;;;5093326;28;20263;-72
2023/06/18 07:00:24;;;;;;;1.00;0.52;;;15.50;99.90;;;;;;5082332;28;20219;-72
2023/06/18 07:02:57;;;;;;;0.90;0.60;;;15.40;99.90;;;;;;5088623;28;20196;-71
2023/06/18 07:05:28;;;;;;;2.80;0.70;;;15.30;99.90;;;;;;5085453;28;20195;-73
2023/06/18 07:07:59;;;;;;;0.93;0.55;;;15.30;99.90;;;;;;5088513;28;20219;-72
2023/06/18 07:10:30;;;;;;;0.88;0.50;;;15.20;99.90;;;;;;5085502;28;20197;-72
2023/06/18 07:13:04;;;;;;;1.85;0.70;;;15.10;99.90;;;;;;5083317;28;20269;-72
2023/06/18 07:15:35;;;;;;;1.80;0.88;;;15.10;99.90;;;;;;5093903;28;20583;-71
2023/06/18 07:18:06;;;;;;;0.63;0.63;;;15.10;99.90;;;;;;5079893;28;20197;-72
2023/06/18 07:20:37;;;;;;;1.35;1.00;;;15.00;99.90;;;;;;5083756;28;20210;-72
2023/06/18 07:23:09;;;;;;;0.88;0.70;;;15.00;99.90;;;;;;5078052;28;20197;-72
2023/06/18 07:25:40;;;;;;;0.98;0.60;;;14.90;99.90;;;;;;5085840;28;20207;-72
2023/06/18 07:28:13;;;;;;;2.08;0.77;;;14.80;99.90;;;;;;5087854;28;20212;-72
2023/06/18 07:30:44;;;;;;;0.65;0.60;;;14.80;99.90;;;;;;5074470;28;20651;-72
2023/06/18 07:33:15;;;;;;;0.63;0.60;;;14.70;99.90;;;;;;5093687;28;20200;-72
2023/06/18 07:35:46;;;;;;;1.10;0.60;;;14.70;99.90;;;;;;5090264;28;20220;-72
2023/06/18 07:38:17;;;;;;;0.88;0.80;;;14.60;99.90;;;;;;5084273;28;20196;-72
2023/06/18 07:40:48;;;;;;;1.17;0.70;;;14.60;99.90;;;;;;5082864;28;20187;-71
2023/06/18 07:43:21;;;;;;;1.48;0.80;;;14.50;99.90;;;;;;5086432;28;20202;-73
2023/06/18 07:45:53;;;;;;;0.70;0.60;;;14.50;99.90;;;;;;5085539;28;20204;-72
2023/06/18 07:48:25;;;;;;;0.60;0.55;;;14.40;99.90;;;;;;5086879;28;20226;-72
2023/06/18 07:50:56;;;;;;;1.40;0.60;;;14.40;99.90;;;;;;5085842;28;20204;-72
2023/06/18 07:53:27;;;;;;;1.10;0.90;;;14.30;99.90;;;;;;5077649;28;20818;-72
2023/06/18 07:55:58;;;;;;;1.27;0.82;;;14.30;99.90;;;;;;5078454;28;20195;-72
2023/06/18 07:58:34;;;;;;;1.60;0.70;;;14.30;99.90;;;;;;5077121;22;20282;-80
2023/06/18 08:01:07;;;;;;;1.52;0.88;;;14.20;99.90;;;;;;4972043;28;20196;-77
2023/06/18 08:03:38;;;;;;;2.10;0.77;;;14.20;99.90;;;;;;4973188;28;20208;-78
2023/06/18 08:06:11;;;;;;;1.50;0.60;;;14.20;99.90;;;;;;4974428;28;20206;-80
2023/06/18 08:08:43;;;;;;;0.80;0.75;;;14.10;99.90;;;;;;4973904;28;20251;-78
2023/06/18 08:11:17;;;;;;;0.90;0.70;;;14.10;99.90;;;;;;4989154;28;20210;-79
2023/06/18 08:13:53;;;;;;;0.88;0.70;;;14.00;99.90;;;;;;4971908;28;20205;-79
2023/06/18 08:16:27;;;;;;;0.95;0.93;;;13.90;99.90;;;;;;4965630;28;20200;-78
2023/06/18 08:19:00;;;;;;;0.75;0.75;;;13.90;99.90;;;;;;4972971;28;20200;-77
2023/06/18 08:21:32;;;;;;;1.95;0.80;;;13.90;99.90;;;;;;4973220;28;20201;-78
2023/06/18 08:24:03;;;;;;;2.00;0.80;;;13.80;99.90;;;;;;4974647;28;20662;-77
2023/06/18 08:26:36;;;;;;;1.83;0.65;;;13.80;99.90;;;;;;4973513;28;20204;-78
2023/06/18 08:29:09;;;;;;;1.75;0.70;;;13.80;99.90;;;;;;4965297;28;20255;-79
2023/06/18 08:31:42;;;;;;;1.33;0.70;;;13.80;99.90;;;;;;4971569;28;20211;-78
2023/06/18 08:34:13;;;;;;;1.40;0.77;;;13.70;99.90;;;;;;4973118;28;20678;-78
2023/06/18 08:36:46;;;;;;;1.08;0.60;;;13.70;99.90;;;;;;4972644;28;20287;-78
2023/06/18 08:39:17;;;;;;;1.05;0.85;;;13.60;99.90;;;;;;4973788;28;20230;-78
2023/06/18 08:41:50;;;;;;;1.50;1.00;;;13.60;99.90;;;;;;4972788;28;20203;-79
2023/06/18 08:44:25;;;;;;;1.17;1.08;;;13.50;99.90;;;;;;4973202;28;20199;-79
2023/06/18 08:47:03;;;;;;;1.50;0.95;;;13.50;99.90;;;;;;4973204;28;20221;-77
2023/06/18 08:49:35;;;;;;;1.35;0.98;;;13.40;99.90;;;;;;4957054;28;20281;-79
2023/06/18 08:52:10;;;;;;;2.28;1.10;;;13.40;99.90;;;;;;4972226;28;20200;-78
2023/06/18 08:54:43;;;;;;;2.10;0.90;;;13.30;99.90;;;;;;4973973;28;20714;-79
2023/06/18 08:57:22;;;;;;;2.17;1.20;;;13.20;99.90;;;;;;4974789;28;20215;-79
2023/06/18 08:59:59;;;;;;;2.00;1.10;;;13.20;99.90;;;;;;4973200;28;20649;-77
2023/06/18 09:02:32;;;;;;;1.42;1.10;;;13.10;99.90;;;;;;4973364;28;20215;-79
2023/06/18 09:05:06;;;;;;;1.20;1.00;;;13.10;99.90;;;;;;4941484;28;20210;-78
2023/06/18 09:07:42;;;;;;;1.58;0.90;;;13.10;99.90;;;;;;4973158;28;21782;-78
2023/06/18 09:10:16;;;;;;;1.45;0.90;;;13.10;99.90;;;;;;4956970;28;20239;-78
2023/06/18 09:12:47;;;;;;;0.70;0.70;;;13.00;99.90;;;;;;4953994;29;20275;-78
2023/06/18 09:15:24;;;;;;;1.35;0.90;;;13.00;99.90;;;;;;4967317;28;20212;-78
2023/06/18 09:17:57;;;;;;;0.65;0.60;;;13.00;99.90;;;;;;4973792;28;20234;-78
2023/06/18 09:20:30;;;;;;;0.88;0.70;;;12.90;99.90;;;;;;4972902;28;20660;-77
2023/06/18 09:23:17;;;;;;;0.75;0.70;;;12.80;99.90;;;;;;4971624;28;20560;-78
2023/06/18 09:25:55;;;;;;;0.70;0.70;;;12.80;99.90;;;;;;4971245;28;20295;-78
2023/06/18 09:28:29;;;;;;;1.13;0.70;;;12.70;99.90;;;;;;4975600;28;20219;-78
2023/06/18 09:31:10;;;;;;;0.93;0.80;;;12.70;99.90;;;;;;4976159;28;20658;-79
2023/06/18 09:33:41;;;;;;;0.70;0.70;;;12.60;99.90;;;;;;4977883;28;20200;-78
2023/06/18 09:36:13;;;;;;;1.45;0.70;;;12.60;99.90;;;;;;4973958;28;20200;-75
2023/06/18 09:38:48;;;;;;;0.50;0.50;;;12.50;99.90;;;;;;4979186;28;20671;-79
2023/06/18 09:41:21;;;;;;;0.57;0.50;;;12.50;99.90;;;;;;4977828;28;20204;-80
2023/06/18 09:43:55;;;;;;;0.70;0.60;;;12.50;99.90;;;;;;4970036;28;20239;-79
2023/06/18 09:46:34;;;;;;;2.33;0.75;;;12.40;99.90;;;;;;4957696;29;20193;-78
2023/06/18 09:49:09;;;;;;;0.98;0.40;;;12.40;99.90;;;;;;4974605;28;20232;-79
2023/06/18 09:51:45;;;;;;;0.50;0.50;;;12.40;99.90;;;;;;4976780;28;20677;-78
2023/06/18 09:54:18;;;;;;;0.82;0.60;;;12.30;99.90;;;;;;4957430;29;20636;-77
2023/06/18 09:57:02;;;;;;;1.10;0.88;;;12.30;99.90;;;;;;4958465;28;20301;-78
2023/06/18 09:59:35;;;;;;;0.82;0.70;;;12.30;99.90;;;;;;4969227;28;20246;-79
2023/06/18 10:02:13;;;;;;;0.60;0.50;;;12.30;99.90;;;;;;4978232;28;20212;-78
2023/06/18 10:04:46;;;;;;;1.30;0.90;;;12.20;99.90;;;;;;4977622;28;20226;-78
2023/06/18 10:07:21;;;;;;;1.13;0.70;;;12.20;99.90;;;;;;4976439;28;20208;-78
2023/06/18 10:09:59;;;;;;;0.50;0.50;;;12.20;99.90;;;;;;4977430;28;20238;-77
2023/06/18 10:12:33;;;;;;;1.67;0.75;;;12.20;99.90;;;;;;4976661;28;20208;-78
2023/06/18 10:15:08;;;;;;;1.02;0.73;;;12.10;99.90;;;;;;4961205;28;20342;-79
2023/06/18 10:17:48;;;;;;;1.20;0.80;;;12.10;99.90;;;;;;4968538;28;20726;-79
2023/06/18 10:20:20;;;;;;;1.00;0.60;;;12.10;99.90;;;;;;4977733;28;20239;-79
2023/06/18 10:22:58;;;;;;;0.77;0.77;;;12.00;99.90;;;;;;4977199;28;20192;-79
2023/06/18 10:25:54;;;;;;;0.98;0.85;;;12.00;99.90;;;;;;4977255;28;20360;-79
2023/06/18 10:28:27;;;;;;;0.80;0.70;;;12.00;99.90;;;;;;4977547;28;20192;-79
2023/06/18 10:31:00;;;;;;;1.10;0.77;;;12.00;99.90;;;;;;4976189;28;20307;-80
2023/06/18 10:33:37;;;;;;;0.88;0.70;;;12.00;99.90;;;;;;4975623;28;20214;-80
2023/06/18 10:36:10;;;;;;;1.58;0.80;;;11.90;99.90;;;;;;4967749;28;20291;-79
2023/06/18 10:38:43;;;;;;;0.95;0.60;;;11.90;99.90;;;;;;4972314;28;20205;-79
2023/06/18 10:41:17;;;;;;;0.80;0.80;;;11.90;99.90;;;;;;4975962;28;20295;-79
2023/06/18 10:43:54;;;;;;;1.30;0.60;;;11.90;99.90;;;;;;4971103;28;20193;-79
2023/06/18 10:46:29;;;;;;;0.60;0.60;;;11.80;99.90;;;;;;4970068;28;20250;-79
2023/06/18 10:49:32;;;;;;;0.98;0.77;;;11.80;99.90;;;;;;4976727;28;20695;-80
2023/06/18 10:52:29;;;;;;;1.00;0.60;;;11.80;99.90;;;;;;4970909;28;20675;-80
2023/06/18 10:55:10;;;;;;;0.50;0.50;;;11.70;99.90;;;;;;4971745;28;20212;-81
2023/06/18 10:57:44;;;;;;;0.73;0.60;;;11.70;99.90;;;;;;4976841;28;20258;-81
2023/06/18 11:00:25;;;;;;;0.80;0.70;;;11.70;99.90;;;;;;4976594;28;20325;-80
2023/06/18 11:03:03;;;;;;;0.63;0.63;;;11.60;99.90;;;;;;4976798;28;20722;-80
2023/06/18 11:06:05;;;;;;;1.20;0.70;;;11.70;99.90;;;;;;4976595;28;20192;-80
2023/06/18 11:08:39;;;;;;;0.77;0.60;;;11.60;99.90;;;;;;4975950;28;20244;-80
2023/06/18 11:11:14;;;;;;;0.60;0.60;;;11.60;99.90;;;;;;4975459;28;20207;-81
2023/06/18 11:13:53;;;;;;;0.93;0.68;;;11.60;99.90;;;;;;4976259;28;20338;-80
2023/06/18 11:16:25;;;;;;;1.05;0.70;;;11.60;99.90;;;;;;4976481;28;20243;-81
2023/06/18 11:19:02;;;;;;;0.60;0.60;;;11.60;99.90;;;;;;4976331;28;20203;-80
2023/06/18 11:21:39;;;;;;;0.95;0.70;;;11.60;99.90;;;;;;4976047;28;20212;-81
2023/06/18 11:24:13;;;;;;;1.75;0.70;;;11.50;99.90;;;;;;4976388;28;20218;-81
2023/06/18 11:26:46;;;;;;;0.80;0.80;;;11.50;99.90;;;;;;4976346;28;20207;-81
2023/06/18 11:29:19;;;;;;;1.38;0.68;;;11.50;99.90;;;;;;4975877;28;20220;-80
2023/06/18 11:31:53;;;;;;;0.98;0.90;;;11.50;99.90;;;;;;4960687;28;20292;-81
2023/06/18 11:34:25;;;;;;;0.90;0.70;;;11.40;99.90;;;;;;4972655;28;20199;-79
2023/06/18 11:37:02;;;;;;;1.83;1.00;;;11.30;99.90;;;;;;4972131;28;20819;-80
2023/06/18 11:39:37;;;;;;;1.75;0.70;;;11.20;99.90;;;;;;4974937;28;20291;-81
2023/06/18 11:42:19;;;;;;;1.00;0.60;;;11.10;99.90;;;;;;4973164;28;20651;-80
2023/06/18 11:44:53;;;;;;;0.90;0.63;;;11.00;99.90;;;;;;4973900;28;20208;-80
2023/06/18 11:47:26;;;;;;;0.68;0.60;;;11.00;99.90;;;;;;4973798;28;20670;-79
2023/06/18 11:49:59;;;;;;;0.65;0.60;;;11.00;99.90;;;;;;4973541;28;20240;-80
2023/06/18 11:52:39;;;;;;;1.05;0.70;;;11.00;99.90;;;;;;4971623;28;20201;-80
2023/06/18 11:55:13;;;;;;;1.63;0.93;;;11.10;99.90;;;;;;4974359;28;20197;-80
2023/06/18 11:57:46;;;;;;;0.88;0.73;;;11.10;99.90;;;;;;4974999;28;20236;-80
2023/06/18 12:00:19;;;;;;;1.65;1.02;;;11.10;99.90;;;;;;4973676;28;20238;-81
2023/06/18 12:02:52;;;;;;;1.40;0.90;;;11.10;99.90;;;;;;4974448;28;20607;-81
2023/06/18 12:05:25;;;;;;;1.05;0.95;;;11.10;99.90;;;;;;4974884;28;20200;-80
2023/06/18 12:07:59;;;;;;;0.85;0.82;;;11.00;99.90;;;;;;4973870;28;20204;-78
2023/06/18 12:10:33;;;;;;;1.15;0.90;;;11.00;99.90;;;;;;4973320;28;20225;-78
2023/06/18 12:13:11;;;;;;;1.00;0.90;;;11.00;99.90;;;;;;4974491;28;20208;-77
2023/06/18 12:15:47;;;;;;;1.48;1.17;;;11.00;99.90;;;;;;4966744;28;20208;-78
2023/06/18 12:18:26;;;;;;;1.90;1.38;;;11.00;99.90;;;;;;4974598;28;20206;-78
2023/06/18 12:20:59;;;;;;;2.58;1.33;;;10.90;99.90;;;;;;4974261;28;20211;-78
2023/06/18 12:23:35;;;;;;;2.47;1.63;;;10.80;99.90;;;;;;4973744;28;20287;-77
2023/06/18 12:26:08;;;;;;;3.55;1.50;;;10.70;99.90;;;;;;4974493;28;20235;-79
2023/06/18 12:28:43;;;;;;;2.30;1.50;;;10.60;99.90;;;;;;4974380;28;20295;-78
2023/06/18 12:31:15;;;;;;;2.47;1.42;;;10.50;99.90;;;;;;4974245;28;20232;-78
2023/06/18 12:33:47;;;;;;;2.53;1.30;;;10.50;99.90;;;;;;4970019;28;20568;-78
2023/06/18 12:36:20;;;;;;;2.88;1.70;;;10.50;99.90;;;;;;4973143;28;20207;-78
2023/06/18 12:38:56;;;;;;;2.30;1.60;;;10.50;99.90;;;;;;4972328;28;20204;-78
2023/06/18 12:41:29;;;;;;;4.15;2.00;;;10.50;99.90;;;;;;4973158;28;20567;-77
2023/06/18 12:44:03;;;;;;;2.20;1.45;;;10.60;99.90;;;;;;4973623;28;20206;-78
2023/06/18 12:46:37;;;;;;;2.35;1.30;;;10.60;99.90;;;;;;4974651;28;20204;-78
2023/06/18 12:49:11;;;;;;;2.20;1.30;;;10.60;99.90;;;;;;4973725;28;20287;-78
2023/06/18 12:51:48;;;;;;;2.78;1.38;;;10.60;99.90;;;;;;4973051;28;20261;-79
2023/06/18 12:54:24;;;;;;;2.05;1.33;;;10.60;99.90;;;;;;4972030;28;20542;-80
2023/06/18 12:56:58;;;;;;;2.65;1.58;;;10.60;99.90;;;;;;4971020;28;20659;-79
2023/06/18 12:59:31;;;;;;;1.77;1.35;;;10.60;99.90;;;;;;4972318;28;20597;-79
2023/06/18 13:02:02;;;;;;;2.05;1.50;;;10.60;99.90;;;;;;4974576;28;20232;-79
2023/06/18 13:04:34;;;;;;;1.83;1.30;;;10.60;99.90;;;;;;4974507;28;20219;-79
2023/06/18 13:07:05;;;;;;;2.38;1.35;;;10.50;99.90;;;;;;4974136;28;20227;-80
2023/06/18 13:09:38;;;;;;;2.90;1.60;;;10.50;99.90;;;;;;4974425;28;20228;-79
2023/06/18 13:12:10;;;;;;;1.90;1.25;;;10.50;99.90;;;;;;4973284;28;20199;-79
2023/06/18 13:14:45;;;;;;;2.28;1.40;;;10.50;99.90;;;;;;4973459;28;20227;-79
2023/06/18 13:17:18;;;;;;;2.72;1.50;;;10.40;99.90;;;;;;4969230;28;20566;-79
2023/06/18 13:19:50;;;;;;;2.35;1.70;;;10.40;99.90;;;;;;4973788;28;20709;-79